createdAt,value
2022-12-19T00:00:42.670Z,13.48
2022-12-19T00:03:09.540Z,12.65
2022-12-19T00:05:37.017Z,12.07
2022-12-19T00:08:04.265Z,13.05
2022-12-19T00:10:41.523Z,12.20
2022-12-19T00:13:08.010Z,11.60
2022-12-19T00:15:34.865Z,10.82
2022-12-19T00:18:01.434Z,12.30
2022-12-19T00:20:28.005Z,11.95
2022-12-19T00:22:54.500Z,12.18
2022-12-19T00:25:21.140Z,12.35
2022-12-19T00:27:48.424Z,11.23
2022-12-19T00:30:14.979Z,11.77
2022-12-19T00:32:41.601Z,11.40
2022-12-19T00:35:08.342Z,10.82
2022-12-19T00:37:35.153Z,11.23
2022-12-19T00:40:04.375Z,11.40
2022-12-19T00:42:30.953Z,11.65
2022-12-19T00:44:57.453Z,10.13
2022-12-19T00:47:25.924Z,10.77
2022-12-19T00:49:52.496Z,11.15
2022-12-19T00:52:19.003Z,10.38
2022-12-19T00:54:45.840Z,9.98
2022-12-19T00:57:12.516Z,10.15
2022-12-19T00:59:40.787Z,11.13
2022-12-19T01:02:07.318Z,10.27
2022-12-19T01:04:41.081Z,9.75
2022-12-19T01:07:12.274Z,10.40
2022-12-19T01:09:38.988Z,10.27
2022-12-19T01:12:25.154Z,9.73
2022-12-19T01:14:58.798Z,9.25
2022-12-19T01:17:30.671Z,8.95
2022-12-19T01:19:57.355Z,9.75
2022-12-19T01:22:23.899Z,9.10
2022-12-19T01:24:50.583Z,8.65
2022-12-19T01:27:17.143Z,8.38
2022-12-19T01:29:51.984Z,8.32
2022-12-19T01:32:19.741Z,7.15
2022-12-19T01:34:46.320Z,8.50
2022-12-19T01:37:12.883Z,8.73
2022-12-19T01:39:39.646Z,8.60
2022-12-19T01:42:20.259Z,8.60
2022-12-19T01:45:03.019Z,8.90
2022-12-19T01:47:30.270Z,9.38
2022-12-19T01:49:56.890Z,9.40
2022-12-19T01:52:23.974Z,9.85
2022-12-19T01:54:50.672Z,12.27
2022-12-19T01:57:18.622Z,9.85
2022-12-19T01:59:49.943Z,9.48
2022-12-19T02:02:25.803Z,10.13
2022-12-19T02:04:52.423Z,9.77
2022-12-19T02:07:19.677Z,9.15
2022-12-19T02:09:47.685Z,10.27
2022-12-19T02:12:21.580Z,11.20
2022-12-19T02:14:48.249Z,10.15
2022-12-19T02:17:20.825Z,9.55
2022-12-19T02:20:08.377Z,10.00
2022-12-19T02:22:44.733Z,10.75
2022-12-19T02:25:26.697Z,10.23
2022-12-19T02:28:11.322Z,10.02
2022-12-19T02:30:50.506Z,11.63
2022-12-19T02:33:29.596Z,9.63
2022-12-19T02:36:00.533Z,9.60
2022-12-19T02:38:31.080Z,9.18
2022-12-19T02:41:04.612Z,10.65
2022-12-19T02:43:33.662Z,9.93
2022-12-19T02:46:00.875Z,8.82
2022-12-19T02:48:28.183Z,9.93
2022-12-19T02:50:54.788Z,10.02
2022-12-19T02:53:24.047Z,8.57
2022-12-19T02:56:05.591Z,9.32
2022-12-19T02:58:45.387Z,9.60
2022-12-19T03:01:33.125Z,9.57
2022-12-19T03:06:31.720Z,9.05
2022-12-19T03:09:02.819Z,9.55
2022-12-19T03:11:35.796Z,9.57
2022-12-19T03:14:05.972Z,10.25
2022-12-19T03:16:34.629Z,10.02
2022-12-19T03:19:01.237Z,9.50
2022-12-19T03:21:33.953Z,10.07
2022-12-19T03:24:01.098Z,9.75
2022-12-19T03:26:33.101Z,9.07
2022-12-19T03:29:03.509Z,9.32
2022-12-19T03:31:31.206Z,9.05
2022-12-19T03:34:10.564Z,9.20
2022-12-19T03:36:42.770Z,8.68
2022-12-19T03:39:10.007Z,8.63
2022-12-19T03:41:56.592Z,8.60
2022-12-19T03:44:25.656Z,8.75
2022-12-19T03:46:58.090Z,9.45
2022-12-19T03:49:24.692Z,8.80
2022-12-19T03:51:59.274Z,9.45
2022-12-19T03:54:28.871Z,8.43
2022-12-19T03:57:01.392Z,8.88
2022-12-19T03:59:45.920Z,8.52
2022-12-19T04:02:15.096Z,8.85
2022-12-19T04:04:43.670Z,9.40
2022-12-19T04:07:11.338Z,8.95
2022-12-19T04:09:38.955Z,8.38
2022-12-19T04:12:08.310Z,8.75
2022-12-19T04:14:36.128Z,8.70
2022-12-19T04:17:26.731Z,9.45
2022-12-19T04:20:08.057Z,8.30
2022-12-19T04:22:34.579Z,8.65
2022-12-19T04:25:01.367Z,9.13
2022-12-19T04:27:34.236Z,8.50
2022-12-19T04:30:02.259Z,8.13
2022-12-19T04:32:29.742Z,8.35
2022-12-19T04:34:56.425Z,8.32
2022-12-19T04:37:22.898Z,8.23
2022-12-19T04:39:49.456Z,8.52
2022-12-19T04:42:15.974Z,8.30
2022-12-19T04:44:42.465Z,8.80
2022-12-19T04:47:09.016Z,7.95
2022-12-19T04:49:35.528Z,8.10
2022-12-19T04:52:02.067Z,8.05
2022-12-19T04:54:28.623Z,8.27
2022-12-19T04:56:55.391Z,8.38
2022-12-19T04:59:21.857Z,8.60
2022-12-19T05:01:48.483Z,8.27
2022-12-19T05:04:15.260Z,6.97
2022-12-19T05:06:41.983Z,8.63
2022-12-19T05:09:10.455Z,8.30
2022-12-19T05:11:37.448Z,7.55
2022-12-19T05:14:03.956Z,7.78
2022-12-19T05:16:30.623Z,7.18
2022-12-19T05:18:57.272Z,8.57
2022-12-19T05:21:24.045Z,7.60
2022-12-19T05:23:51.329Z,7.85
2022-12-19T05:26:17.843Z,7.38
2022-12-19T05:28:44.588Z,7.05
2022-12-19T05:31:12.823Z,7.25
2022-12-19T05:33:40.155Z,6.57
2022-12-19T05:36:06.912Z,7.65
2022-12-19T05:38:33.436Z,7.13
2022-12-19T05:41:00.167Z,6.85
2022-12-19T05:43:27.600Z,7.75
2022-12-19T05:45:54.049Z,6.47
2022-12-19T05:48:20.772Z,6.55
2022-12-19T05:50:48.452Z,6.03
2022-12-19T05:53:16.498Z,6.18
2022-12-19T05:55:43.079Z,6.18
2022-12-19T05:58:09.819Z,6.72
2022-12-19T06:00:36.370Z,7.00
2022-12-19T06:03:03.437Z,5.97
2022-12-19T06:05:30.206Z,5.68
2022-12-19T06:07:56.694Z,6.85
2022-12-19T06:10:23.221Z,5.55
2022-12-19T06:12:49.743Z,5.88
2022-12-19T06:15:16.289Z,6.05
2022-12-19T06:17:42.899Z,5.70
2022-12-19T06:20:09.674Z,5.75
2022-12-19T06:22:36.255Z,6.68
2022-12-19T06:25:02.702Z,6.55
2022-12-19T06:27:29.244Z,5.95
2022-12-19T06:29:55.809Z,5.93
2022-12-19T06:32:22.624Z,5.72
2022-12-19T06:35:04.184Z,5.07
2022-12-19T06:37:31.528Z,5.68
2022-12-19T06:39:58.004Z,5.95
2022-12-19T06:42:24.674Z,6.10
2022-12-19T06:44:52.296Z,5.93
2022-12-19T06:47:19.940Z,5.82
2022-12-19T06:49:46.420Z,5.60
2022-12-19T06:52:13.256Z,5.68
2022-12-19T06:54:39.965Z,5.63
2022-12-19T06:57:06.714Z,6.10
2022-12-19T06:59:33.372Z,5.43
2022-12-19T07:02:03.584Z,5.72
2022-12-19T07:04:35.728Z,6.03
2022-12-19T07:07:02.437Z,6.13
2022-12-19T07:09:29.316Z,5.85
2022-12-19T07:11:55.916Z,5.35
2022-12-19T07:14:22.533Z,5.45
2022-12-19T07:16:50.354Z,6.60
2022-12-19T07:19:17.041Z,5.53
2022-12-19T07:21:43.846Z,5.38
2022-12-19T07:24:11.294Z,5.22
2022-12-19T07:26:38.022Z,6.47
2022-12-19T07:29:04.750Z,6.10
2022-12-19T07:31:31.244Z,5.45
2022-12-19T07:33:58.137Z,5.88
2022-12-19T07:36:25.080Z,6.00
2022-12-19T07:38:51.616Z,5.65
2022-12-19T07:41:18.328Z,5.18
2022-12-19T07:43:45.726Z,5.18
2022-12-19T07:46:12.253Z,5.78
2022-12-19T07:48:38.744Z,5.40
2022-12-19T07:51:05.436Z,5.32
2022-12-19T07:53:32.202Z,5.20
2022-12-19T07:55:58.826Z,4.93
2022-12-19T07:58:25.309Z,5.03
2022-12-19T08:00:58.765Z,5.60
2022-12-19T08:03:25.543Z,5.05
2022-12-19T08:05:52.327Z,4.93
2022-12-19T08:08:19.073Z,4.90
2022-12-19T08:10:45.781Z,5.32
2022-12-19T08:13:12.373Z,4.88
2022-12-19T08:15:38.819Z,4.95
2022-12-19T08:18:05.493Z,5.38
2022-12-19T08:20:32.112Z,5.13
2022-12-19T08:22:58.742Z,4.50
2022-12-19T08:25:25.482Z,5.00
2022-12-19T08:27:52.148Z,5.15
2022-12-19T08:30:19.060Z,5.13
2022-12-19T08:32:46.026Z,5.53
2022-12-19T08:35:12.516Z,5.28
2022-12-19T08:37:39.335Z,5.43
2022-12-19T08:40:07.020Z,5.47
2022-12-19T08:42:33.744Z,4.95
2022-12-19T08:45:00.257Z,5.03
2022-12-19T08:47:26.967Z,4.60
2022-12-19T08:49:53.479Z,4.78
2022-12-19T08:52:20.000Z,4.63
2022-12-19T08:54:46.496Z,5.18
2022-12-19T08:57:13.252Z,4.63
2022-12-19T08:59:39.787Z,5.47
2022-12-19T09:02:07.847Z,3.90
2022-12-19T09:05:58.786Z,4.32
2022-12-19T09:07:21.267Z,4.28
2022-12-19T09:09:47.727Z,4.70
2022-12-19T09:12:14.771Z,3.80
2022-12-19T09:14:41.473Z,5.13
2022-12-19T09:17:08.085Z,3.97
2022-12-19T09:19:34.640Z,4.10
2022-12-19T09:22:01.209Z,4.78
2022-12-19T09:24:27.884Z,4.35
2022-12-19T09:26:54.455Z,4.10
2022-12-19T09:29:22.118Z,4.03
2022-12-19T09:31:55.607Z,4.47
2022-12-19T09:34:37.669Z,4.10
2022-12-19T09:37:06.579Z,4.40
2022-12-19T09:39:34.405Z,5.15
2022-12-19T09:42:07.398Z,4.43
2022-12-19T09:44:55.825Z,4.40
2022-12-19T09:47:24.239Z,5.00
2022-12-19T09:49:52.031Z,4.38
2022-12-19T09:52:18.492Z,4.57
2022-12-19T09:55:05.127Z,4.20
2022-12-19T09:57:50.462Z,4.45
2022-12-19T10:02:48.693Z,4.72
2022-12-19T10:05:55.247Z,5.05
2022-12-19T10:08:19.686Z,5.03
2022-12-19T10:12:40.176Z,4.90
2022-12-19T10:13:54.539Z,5.00
2022-12-19T10:16:30.713Z,4.25
2022-12-19T10:18:58.447Z,4.78
2022-12-19T10:21:58.959Z,4.80
2022-12-19T10:24:34.809Z,6.75
2022-12-19T10:27:08.593Z,5.82
2022-12-19T10:29:35.337Z,4.82
2022-12-19T10:32:22.452Z,4.65
2022-12-19T10:34:50.942Z,5.20
2022-12-19T10:37:28.746Z,5.35
2022-12-19T10:40:01.076Z,4.63
2022-12-19T10:42:36.830Z,4.60
2022-12-19T10:45:08.920Z,5.13
2022-12-19T10:47:35.572Z,5.15
2022-12-19T10:50:09.012Z,5.07
2022-12-19T10:52:47.360Z,5.07
2022-12-19T10:55:34.560Z,5.00
2022-12-19T10:58:10.856Z,4.50
2022-12-19T11:00:37.436Z,7.60
2022-12-19T11:03:12.326Z,5.32
2022-12-19T11:05:47.405Z,5.45
2022-12-19T11:08:20.701Z,4.80
2022-12-19T11:11:25.243Z,5.88
2022-12-19T11:18:36.991Z,5.65
2022-12-19T11:20:49.495Z,4.65
2022-12-19T11:29:34.684Z,5.03
2022-12-19T11:29:35.300Z,4.70
2022-12-19T11:30:38.371Z,5.18
2022-12-19T11:30:43.172Z,4.95
2022-12-19T11:33:24.334Z,5.63
2022-12-19T11:35:52.331Z,5.00
2022-12-19T11:38:39.858Z,5.88
2022-12-19T11:41:12.974Z,4.75
2022-12-19T11:43:46.648Z,4.97
2022-12-19T11:46:22.509Z,4.90
2022-12-19T11:48:53.745Z,5.70
2022-12-19T11:51:23.303Z,5.10
2022-12-19T11:54:00.005Z,4.43
2022-12-19T11:56:28.065Z,4.70
2022-12-19T11:58:56.668Z,4.68
2022-12-19T12:01:59.224Z,4.95
2022-12-19T12:04:37.673Z,4.70
2022-12-19T12:07:13.035Z,5.25
2022-12-19T12:13:07.304Z,4.25
2022-12-19T12:19:49.837Z,5.93
2022-12-19T12:27:53.617Z,4.28
2022-12-19T12:31:04.289Z,4.05
2022-12-19T12:31:07.342Z,4.22
2022-12-19T12:31:11.209Z,3.60
2022-12-19T12:31:56.858Z,4.50
2022-12-19T12:35:12.842Z,4.75
2022-12-19T12:35:48.610Z,4.57
2022-12-19T12:38:49.142Z,4.18
2022-12-19T12:41:51.560Z,4.13
2022-12-19T12:44:18.120Z,4.00
2022-12-19T12:47:01.514Z,4.05
2022-12-19T12:49:37.300Z,3.92
2022-12-19T12:52:05.436Z,4.80
2022-12-19T12:54:38.006Z,3.92
2022-12-19T12:57:04.704Z,3.85
2022-12-19T12:59:31.784Z,3.83
2022-12-19T13:02:00.411Z,4.10
2022-12-19T13:04:27.574Z,3.97
2022-12-19T13:06:54.174Z,3.85
2022-12-19T13:09:25.603Z,3.97
2022-12-19T13:12:19.011Z,4.00
2022-12-19T13:14:51.927Z,4.30
2022-12-19T13:17:33.782Z,3.45
2022-12-19T13:20:03.466Z,4.22
2022-12-19T13:22:29.966Z,3.85
2022-12-19T13:24:57.574Z,3.63
2022-12-19T13:27:24.757Z,3.55
2022-12-19T13:30:04.681Z,3.70
2022-12-19T13:32:54.194Z,3.70
2022-12-19T13:36:49.317Z,3.70
2022-12-19T13:40:02.344Z,3.17
2022-12-19T13:41:25.750Z,3.90
2022-12-19T13:43:56.660Z,3.67
2022-12-19T13:46:43.138Z,3.92
2022-12-19T13:49:29.549Z,4.65
2022-12-19T13:52:00.793Z,3.60
2022-12-19T13:54:34.971Z,3.85
2022-12-19T13:57:09.209Z,3.13
2022-12-19T13:59:37.906Z,4.15
2022-12-19T14:02:08.261Z,3.08
2022-12-19T14:04:35.009Z,3.78
2022-12-19T14:07:05.492Z,3.53
2022-12-19T14:11:26.659Z,4.03
2022-12-19T14:12:47.306Z,3.42
2022-12-19T14:15:38.416Z,3.25
2022-12-19T14:18:41.792Z,4.07
2022-12-19T14:22:08.004Z,3.53
2022-12-19T14:24:09.886Z,3.50
2022-12-19T14:28:19.473Z,3.38
2022-12-19T14:30:02.350Z,4.15
2022-12-19T14:33:40.355Z,3.60
2022-12-19T14:36:07.131Z,3.13
2022-12-19T14:39:01.258Z,3.58
2022-12-19T14:41:08.088Z,3.60
2022-12-19T14:44:00.005Z,3.60
2022-12-19T14:54:01.911Z,3.38
2022-12-19T14:54:12.043Z,3.30
2022-12-19T14:54:28.082Z,4.10
2022-12-19T14:56:08.637Z,3.85
2022-12-19T14:58:53.274Z,3.90
2022-12-19T15:01:10.822Z,3.92
2022-12-19T15:03:44.246Z,3.83
2022-12-19T15:07:08.033Z,3.80
2022-12-19T15:11:03.851Z,3.83
2022-12-19T15:14:46.631Z,4.45
2022-12-19T15:15:25.002Z,3.88
2022-12-19T15:17:52.869Z,3.13
2022-12-19T15:20:19.848Z,3.85
2022-12-19T15:22:46.916Z,3.50
2022-12-19T15:25:52.764Z,4.13
2022-12-19T15:28:18.028Z,3.72
2022-12-19T15:30:55.878Z,4.13
2022-12-19T15:33:22.471Z,3.47
2022-12-19T15:35:49.257Z,4.05
2022-12-19T15:38:15.941Z,4.40
2022-12-19T15:40:45.462Z,3.92
2022-12-19T15:44:01.343Z,3.75
2022-12-19T15:46:06.828Z,4.30
2022-12-19T15:48:36.644Z,5.05
2022-12-19T15:51:03.104Z,4.10
2022-12-19T15:53:40.238Z,3.78
2022-12-19T15:56:28.086Z,3.70
2022-12-19T15:58:56.292Z,4.07
2022-12-19T16:01:22.980Z,3.50
2022-12-19T16:03:50.466Z,3.75
2022-12-19T16:06:17.175Z,4.30
2022-12-19T16:08:43.869Z,3.60
2022-12-19T16:11:16.335Z,3.95
2022-12-19T16:13:45.131Z,3.83
2022-12-19T16:16:15.906Z,4.32
2022-12-19T16:18:44.488Z,4.13
2022-12-19T16:21:20.339Z,3.42
2022-12-19T16:23:47.123Z,3.78
2022-12-19T16:26:43.054Z,4.00
2022-12-19T16:29:17.169Z,4.32
2022-12-19T16:31:43.788Z,4.60
2022-12-19T16:34:20.642Z,4.03
2022-12-19T16:36:47.439Z,4.15
2022-12-19T16:39:14.164Z,4.45
2022-12-19T16:41:43.136Z,4.38
2022-12-19T16:44:19.364Z,4.57
2022-12-19T16:46:50.560Z,3.97
2022-12-19T16:49:22.910Z,4.60
2022-12-19T16:51:50.211Z,3.92
2022-12-19T16:54:17.636Z,4.07
2022-12-19T16:56:47.970Z,4.50
2022-12-19T16:59:21.786Z,3.75
2022-12-19T17:01:49.069Z,4.90
2022-12-19T17:04:16.565Z,4.72
2022-12-19T17:06:43.420Z,4.47
2022-12-19T17:09:14.309Z,4.50
2022-12-19T17:11:41.000Z,5.45
2022-12-19T17:14:13.732Z,4.38
2022-12-19T17:16:40.469Z,4.78
2022-12-19T17:19:09.044Z,4.72
2022-12-19T17:21:35.627Z,4.50
2022-12-19T17:24:02.080Z,4.35
2022-12-19T17:26:28.639Z,4.00
2022-12-19T17:28:55.972Z,4.28
2022-12-19T17:31:24.234Z,4.80
2022-12-19T17:33:50.928Z,4.30
2022-12-19T17:36:21.313Z,4.30
2022-12-19T17:38:49.727Z,4.35
2022-12-19T17:41:17.369Z,5.13
2022-12-19T17:43:44.342Z,4.40
2022-12-19T17:46:18.295Z,5.10
2022-12-19T17:48:46.095Z,4.65
2022-12-19T17:51:13.475Z,4.72
2022-12-19T17:53:40.049Z,5.07
2022-12-19T17:56:08.766Z,4.90
2022-12-19T17:58:35.339Z,4.55
2022-12-19T18:01:01.934Z,4.95
2022-12-19T18:03:28.928Z,4.72
2022-12-19T18:05:56.033Z,5.10
2022-12-19T18:08:25.753Z,4.40
2022-12-19T18:10:53.068Z,4.47
2022-12-19T18:13:20.487Z,4.05
2022-12-19T18:15:47.365Z,5.00
2022-12-19T18:18:15.216Z,4.25
2022-12-19T18:20:43.595Z,4.70
2022-12-19T18:23:15.440Z,4.25
2022-12-19T18:25:42.246Z,4.45
2022-12-19T18:28:08.755Z,4.40
2022-12-19T18:30:35.722Z,4.20
2022-12-19T18:33:02.912Z,4.53
2022-12-19T18:35:34.986Z,4.38
2022-12-19T18:38:02.506Z,5.13
2022-12-19T18:40:31.536Z,4.40
2022-12-19T18:42:58.864Z,4.70
2022-12-19T18:45:27.300Z,4.65
2022-12-19T18:47:58.706Z,4.45
2022-12-19T18:50:26.578Z,5.15
2022-12-19T18:52:54.045Z,4.55
2022-12-19T18:55:22.472Z,5.45
2022-12-19T18:57:49.309Z,4.53
2022-12-19T19:00:17.170Z,4.57
2022-12-19T19:02:46.793Z,5.20
2022-12-19T19:05:14.396Z,5.22
2022-12-19T19:07:40.955Z,4.80
2022-12-19T19:10:17.458Z,5.40
2022-12-19T19:13:08.258Z,5.10
2022-12-19T19:15:46.723Z,5.13
2022-12-19T19:18:13.416Z,5.18
2022-12-19T19:20:40.724Z,4.30
2022-12-19T19:23:08.776Z,5.43
2022-12-19T19:25:35.436Z,4.55
2022-12-19T19:28:02.523Z,4.78
2022-12-19T19:30:30.146Z,4.82
2022-12-19T19:32:59.287Z,4.95
2022-12-19T19:35:27.262Z,4.43
2022-12-19T19:37:55.235Z,4.63
2022-12-19T19:40:21.797Z,4.30
2022-12-19T19:42:48.664Z,4.93
2022-12-19T19:45:15.130Z,4.75
2022-12-19T19:47:42.595Z,4.28
2022-12-19T19:50:11.100Z,5.00
2022-12-19T19:52:38.508Z,4.80
2022-12-19T20:00:04.543Z,5.00
2022-12-19T20:03:40.757Z,4.53
2022-12-19T20:19:24.269Z,3.95
2022-12-19T20:21:51.660Z,6.68
2022-12-19T20:24:18.170Z,4.40
2022-12-19T20:26:44.813Z,4.88
2022-12-19T20:29:14.365Z,4.38
2022-12-19T20:31:41.553Z,4.70
2022-12-19T20:34:08.593Z,4.80
2022-12-19T20:36:35.729Z,4.90
2022-12-19T20:39:04.974Z,5.40
2022-12-19T20:41:31.599Z,6.65
2022-12-19T20:43:58.056Z,5.40
2022-12-19T20:46:24.712Z,5.00
2022-12-19T20:48:51.369Z,5.45
2022-12-19T20:51:18.864Z,4.70
2022-12-19T20:53:45.903Z,4.78
2022-12-19T20:56:17.989Z,3.97
2022-12-19T20:58:45.032Z,4.82
2022-12-19T21:01:11.558Z,4.13
2022-12-19T21:03:38.550Z,4.68
2022-12-19T21:06:05.865Z,4.45
2022-12-19T21:08:32.605Z,4.15
2022-12-19T21:11:00.052Z,5.47
2022-12-19T21:13:26.719Z,3.97
2022-12-19T21:15:54.428Z,4.28
2022-12-19T21:18:21.290Z,4.38
2022-12-19T21:20:47.774Z,4.35
2022-12-19T21:23:14.832Z,4.15
2022-12-19T21:25:41.715Z,4.53
2022-12-19T21:28:08.510Z,3.78
2022-12-19T21:30:35.023Z,3.65
2022-12-19T21:33:01.732Z,4.30
2022-12-19T21:35:28.351Z,6.05
2022-12-19T21:37:54.875Z,3.90
2022-12-19T21:40:21.781Z,4.50
2022-12-19T21:42:48.588Z,4.70
2022-12-19T21:45:15.363Z,4.15
2022-12-19T21:47:43.053Z,4.18
2022-12-19T21:50:11.122Z,3.75
2022-12-19T21:52:37.804Z,4.38
2022-12-19T21:55:08.332Z,4.05
2022-12-19T21:57:38.430Z,4.35
2022-12-19T22:00:06.942Z,3.88
2022-12-19T22:02:33.613Z,3.78
2022-12-19T22:05:00.422Z,4.05
2022-12-19T22:07:27.332Z,4.65
2022-12-19T22:09:53.863Z,4.22
2022-12-19T22:12:20.488Z,4.40
2022-12-19T22:14:47.025Z,3.75
2022-12-19T22:17:13.538Z,4.80
2022-12-19T22:19:41.024Z,4.28
2022-12-19T22:22:07.822Z,4.30
2022-12-19T22:24:34.510Z,4.15
2022-12-19T22:27:01.065Z,4.00
2022-12-19T22:29:27.694Z,3.97
2022-12-19T22:31:54.344Z,4.22
2022-12-19T22:34:21.378Z,4.00
2022-12-19T22:36:48.784Z,4.05
2022-12-19T22:39:17.823Z,3.78
2022-12-19T22:41:44.362Z,3.95
2022-12-19T22:44:16.209Z,4.10
2022-12-19T22:46:42.838Z,4.15
2022-12-19T22:49:11.062Z,4.25
2022-12-19T22:51:37.962Z,6.57
2022-12-19T22:54:05.081Z,4.50
2022-12-19T22:56:32.277Z,5.20
2022-12-19T22:59:00.258Z,4.70
2022-12-19T23:01:31.332Z,4.85
2022-12-19T23:03:58.905Z,4.35
2022-12-19T23:06:27.105Z,4.20
2022-12-19T23:08:53.661Z,3.90
2022-12-19T23:11:21.849Z,3.88
2022-12-19T23:13:48.961Z,4.03
2022-12-19T23:16:16.163Z,4.10
2022-12-19T23:18:42.840Z,4.25
2022-12-19T23:21:09.860Z,4.28
2022-12-19T23:23:42.167Z,3.47
2022-12-19T23:26:15.608Z,4.38
2022-12-19T23:28:43.578Z,4.28
2022-12-19T23:31:11.335Z,6.32
2022-12-19T23:33:38.257Z,3.53
2022-12-19T23:36:05.508Z,4.30
2022-12-19T23:38:32.204Z,4.32
2022-12-19T23:41:02.272Z,4.55
2022-12-19T23:43:29.338Z,4.97
2022-12-19T23:45:55.865Z,4.60
2022-12-19T23:48:28.687Z,3.95
2022-12-19T23:51:02.433Z,4.05
2022-12-19T23:53:29.280Z,3.58
2022-12-19T23:55:55.820Z,4.18
2022-12-19T23:58:24.838Z,3.55
